Aviation Digital Data Service (ADDS)

Output produced by METARs form (1009 UTC 22 January 2017)
found at http://aviationweather.gov/adds/metars/
 
METAR text: TBPB 221000Z 10012KT 9999 SCT016 25/23 Q1013 NOSIG
Conditions at: TBPB (GRANTLEY ADAMS , BB) observed 1000 UTC 22 January 2017
Temperature: 25.0°C (77°F)
Dewpoint: 23.0°C (73°F) [RH = 89%]
Pressure (altimeter): 29.91 inches Hg (1013.0 mb)
Winds: from the E (100 degrees) at 14 MPH (12 knots; 6.2 m/s)
Visibility: 6 or more miles (10+ km)
Ceiling: at least 12,000 feet AGL
Clouds: scattered clouds at 1600 feet AGL
Weather: no significant weather observed at this time

Forecast for: TBPB (GRANTLEY ADAMS , BB)
Text: TAF TBPB 220500Z 2206/2306 08010KT 9999 SCT018
Forecast period: 0600 UTC 22 January 2017 to 0600 UTC 23 January 2017
Forecast type: FROM: standard forecast or significant change
Winds: from the E (80 degrees) at 12 MPH (10 knots; 5.2 m/s)
Visibility: 6 or more miles (10+ km)
Clouds: scattered clouds at 1800 feet AGL
Weather: no significant weather forecast for this period
Text: PROB30
Forecast period: 0600 to 1200 UTC 22 January 2017
Forecast type: TEMPORARY: The following changes expected for less than half the time period
Visibility: 5 miles (8 km)
Ceiling: 1600 feet AGL
Clouds: broken clouds at 1600 feet AGL
Weather: SHRA  (rain showers)